Time;durP1;ratioP1;P1;durP2;ratioP2;P2;SDS_P1;SDS_P2;PMS_P1;PMS_P2;Temp;Humidity;BMP_temperature;BMP_pressure;BME280_temperature;BME280_humidity;BME280_pressure;Samples;Min_cycle;Max_cycle;Signal;HPM_P1;HPM_P2
2022/07/07 00:00:00;;;;;;;4.22;3.47;;;;;;;18.78;93.30;100104.58;1628040;87;21056;-71
2022/07/07 00:02:26;;;;;;;3.75;3.62;;;;;;;18.86;92.68;100105.52;1662458;85;21588;-70
2022/07/07 00:04:53;;;;;;;3.75;3.40;;;;;;;18.90;92.33;100105.04;1650146;85;21051;-70
2022/07/07 00:07:20;;;;;;;2.98;2.87;;;;;;;18.88;91.78;100095.02;1663223;85;21020;-70
2022/07/07 00:09:48;;;;;;;2.70;2.50;;;;;;;18.86;90.78;100100.12;1661585;85;21095;-71
2022/07/07 00:12:14;;;;;;;2.58;2.27;;;;;;;18.81;90.34;100101.39;1676027;83;21021;-70
2022/07/07 00:14:41;;;;;;;2.40;2.20;;;;;;;18.75;90.57;100101.02;1690489;83;21062;-71
2022/07/07 00:17:07;;;;;;;2.08;1.57;;;;;;;18.72;89.85;100093.41;1690430;83;21141;-70
2022/07/07 00:19:34;;;;;;;1.17;1.17;;;;;;;18.65;89.10;100091.44;1694362;83;21038;-71
2022/07/07 00:22:01;;;;;;;3.15;1.77;;;;;;;18.57;87.97;100091.32;1692769;83;21053;-70
2022/07/07 00:24:29;;;;;;;1.42;1.25;;;;;;;18.48;89.45;100094.15;1689663;80;21891;-73
2022/07/07 00:26:55;;;;;;;0.93;0.93;;;;;;;18.44;89.17;100104.62;1690057;83;21025;-70
2022/07/07 00:29:21;;;;;;;;;;;;;;;18.41;89.18;100108.34;1691234;83;21513;-71
2022/07/07 00:31:47;;;;;;;4.12;1.85;;;;;;;18.45;88.99;100107.59;1689880;83;20109;-70
2022/07/07 00:34:14;;;;;;;1.95;1.45;;;;;;;18.40;88.82;100101.29;1681043;81;21056;-70
2022/07/07 00:36:41;;;;;;;;;;;;;;;18.39;89.45;100095.63;1675557;84;21084;-70
2022/07/07 00:39:08;;;;;;;1.02;1.02;;;;;;;18.42;88.61;100098.66;1659225;85;20110;-70
2022/07/07 00:41:34;;;;;;;2.80;1.10;;;;;;;18.38;88.46;100092.63;1672710;84;21183;-70
2022/07/07 00:44:01;;;;;;;0.93;0.93;;;;;;;18.33;88.53;100104.17;1650329;85;21580;-71
2022/07/07 00:46:30;;;;;;;;;;;;;;;18.32;88.60;100096.31;1690142;82;21073;-70
2022/07/07 00:48:56;;;;;;;1.70;0.70;;;;;;;18.30;88.33;100088.46;1676744;83;20171;-71
2022/07/07 00:51:23;;;;;;;1.05;0.78;;;;;;;18.27;87.97;100079.50;1686422;83;21090;-70
2022/07/07 00:53:49;;;;;;;;;;;;;;;18.22;87.23;100091.03;1690515;83;21084;-71
2022/07/07 00:56:15;;;;;;;1.20;0.50;;;;;;;18.11;86.31;100092.47;1680731;80;20229;-70
2022/07/07 00:58:41;;;;;;;4.50;0.35;;;;;;;17.94;86.37;100084.36;1688534;83;21053;-70
2022/07/07 01:01:10;;;;;;;0.88;0.30;;;;;;;17.80;85.25;100085.14;1669347;83;21072;-69
2022/07/07 01:03:36;;;;;;;0.47;0.30;;;;;;;17.70;85.54;100085.24;1653671;85;21034;-70
2022/07/07 01:06:03;;;;;;;0.62;0.33;;;;;;;17.58;85.18;100095.27;1661618;86;21483;-72
2022/07/07 01:08:31;;;;;;;0.70;0.47;;;;;;;17.52;85.12;100093.55;1639816;85;21070;-71
2022/07/07 01:10:58;;;;;;;5.70;0.40;;;;;;;17.47;85.45;100081.31;1652094;85;21110;-69
2022/07/07 01:13:24;;;;;;;;;;;;;;;17.39;85.92;100088.44;1620593;85;21038;-70
2022/07/07 01:15:50;;;;;;;0.28;0.20;;;;;;;17.35;86.27;100087.26;1614742;87;20143;-69
2022/07/07 01:18:17;;;;;;;0.30;0.10;;;;;;;17.28;85.42;100094.95;1672282;84;21142;-70
2022/07/07 01:20:46;;;;;;;;;;;;;;;17.28;85.69;100094.95;1673338;84;21156;-70
2022/07/07 01:23:14;;;;;;;0.10;0.10;;;;;;;17.29;85.61;100091.73;1670902;84;20100;-71
2022/07/07 01:25:40;;;;;;;2.10;0.20;;;;;;;17.23;85.24;100086.77;1689702;84;21079;-70
2022/07/07 01:28:10;;;;;;;0.23;0.10;;;;;;;17.23;85.17;100086.77;1685285;84;21067;-72
2022/07/07 01:30:36;;;;;;;;;;;;;;;17.26;84.99;100099.77;1677204;84;21050;-70
2022/07/07 01:33:03;;;;;;;1.37;0.10;;;;;;;17.27;84.91;100106.80;1672562;84;20214;-70
2022/07/07 01:35:29;;;;;;;;;;;;;;;17.23;86.20;100115.05;1685250;84;21014;-70
2022/07/07 01:37:56;;;;;;;0.20;0.10;;;;;;;17.24;85.32;100121.27;1677250;84;20210;-71
2022/07/07 01:40:23;;;;;;;0.60;0.10;;;;;;;17.17;85.51;100113.84;1677427;85;21537;-80
2022/07/07 01:42:49;;;;;;;0.50;0.15;;;;;;;17.31;85.18;100134.90;1677801;84;20973;-69
2022/07/07 01:45:15;;;;;;;0.30;0.10;;;;;;;17.43;84.35;100132.70;1689662;83;21546;-70
2022/07/07 01:47:42;;;;;;;3.00;0.20;;;;;;;17.46;84.41;100132.20;1690001;83;21001;-69
2022/07/07 01:50:09;;;;;;;;;;;;;;;17.45;84.13;100141.36;1683712;83;21082;-70
2022/07/07 01:52:36;;;;;;;4.22;0.10;;;;;;;17.42;84.04;100134.59;1693820;83;20205;-72
2022/07/07 01:55:04;;;;;;;1.95;0.10;;;;;;;17.34;83.15;100139.52;1688832;83;21014;-71
2022/07/07 01:57:32;;;;;;;0.45;0.20;;;;;;;17.25;83.41;100149.33;1656648;86;21074;-70
2022/07/07 01:59:58;;;;;;;0.57;0.10;;;;;;;17.17;83.69;100156.94;1661966;85;21082;-70
2022/07/07 02:02:24;;;;;;;;;;;;;;;17.06;82.28;100166.66;1717288;82;20998;-70
2022/07/07 02:04:50;;;;;;;0.10;0.10;;;;;;;17.01;83.24;100154.41;1715372;82;20201;-70
2022/07/07 02:07:17;;;;;;;0.10;0.10;;;;;;;16.96;84.32;100147.59;1711910;83;21022;-71
2022/07/07 02:09:44;;;;;;;0.17;0.10;;;;;;;17.07;84.04;100157.53;1719251;82;21020;-72
2022/07/07 02:12:10;;;;;;;;;;;;;;;17.21;84.12;100164.30;1699033;82;21254;-70
2022/07/07 02:14:37;;;;;;;0.72;0.10;;;;;;;17.22;82.68;100161.91;1672605;84;20126;-72
2022/07/07 02:17:04;;;;;;;1.47;0.10;;;;;;;17.09;82.63;100163.50;1679182;84;21028;-71
2022/07/07 02:19:30;;;;;;;1.85;0.10;;;;;;;17.02;83.45;100158.77;1666493;84;22110;-70
2022/07/07 02:21:58;;;;;;;2.80;0.30;;;;;;;16.96;82.97;100157.02;1674194;84;21103;-70
2022/07/07 02:24:24;;;;;;;0.10;0.10;;;;;;;16.90;82.97;100158.23;1680710;83;20996;-72
2022/07/07 02:26:50;;;;;;;;;;;;;;;16.91;82.91;100157.20;1647565;86;21756;-70
2022/07/07 02:29:16;;;;;;;1.27;0.10;;;;;;;16.88;83.11;100159.54;1642612;86;20274;-70
2022/07/07 02:31:43;;;;;;;3.10;0.10;;;;;;;16.79;82.97;100154.17;1634389;86;21062;-71
2022/07/07 02:34:09;;;;;;;;;;;;;;;16.78;83.35;100156.56;1636951;85;21052;-69
2022/07/07 02:36:35;;;;;;;1.95;0.10;;;;;;;16.85;83.14;100162.16;1634820;86;20136;-71
2022/07/07 02:39:02;;;;;;;0.20;0.00;;;;;;;16.84;82.96;100160.53;1635719;86;21519;-70
2022/07/07 02:41:28;;;;;;;0.80;0.00;;;;;;;16.87;83.18;100163.27;1633245;86;21042;-70
2022/07/07 02:43:55;;;;;;;1.60;0.10;;;;;;;16.90;82.28;100169.01;1635449;86;21088;-71
2022/07/07 02:46:21;;;;;;;;;;;;;;;16.92;81.74;100170.94;1636221;85;21138;-71
2022/07/07 02:48:47;;;;;;;0.62;0.00;;;;;;;16.91;82.38;100172.00;1625650;86;20502;-70
2022/07/07 02:51:13;;;;;;;3.12;0.10;;;;;;;16.88;82.78;100181.08;1631026;86;21111;-71
2022/07/07 02:53:40;;;;;;;1.20;0.10;;;;;;;16.93;82.48;100182.02;1589100;89;21145;-75
2022/07/07 02:56:06;;;;;;;0.15;0.10;;;;;;;16.95;82.47;100172.33;1643481;85;21048;-75
2022/07/07 02:58:32;;;;;;;0.85;0.10;;;;;;;16.95;81.86;100174.21;1652224;85;21025;-70
2022/07/07 03:03:52;;;;;;;0.42;0.00;;;;;;;17.04;81.82;100178.19;1783054;79;23505;-69
2022/07/07 03:06:21;;;;;;;0.20;0.10;;;;;;;16.95;81.56;100184.98;1741064;80;21148;-77
2022/07/07 03:08:47;;;;;;;0.35;0.10;;;;;;;16.93;81.93;100194.13;1739172;80;21099;-72
2022/07/07 03:11:14;;;;;;;1.75;0.17;;;;;;;16.90;82.73;100193.23;1737917;80;21065;-71
2022/07/07 03:13:40;;;;;;;0.42;0.08;;;;;;;16.85;82.35;100195.80;1696547;83;21075;-70
2022/07/07 03:16:07;;;;;;;0.20;0.08;;;;;;;16.80;82.33;100195.67;1702653;83;21036;-73
2022/07/07 03:18:33;;;;;;;0.10;0.10;;;;;;;16.74;83.05;100197.42;1702337;83;21522;-70
2022/07/07 03:21:00;;;;;;;0.20;0.00;;;;;;;16.71;83.53;100199.22;1702291;83;21084;-71
2022/07/07 03:23:28;;;;;;;0.20;0.08;;;;;;;16.65;83.88;100197.47;1711133;81;21025;-70
2022/07/07 03:25:54;;;;;;;0.05;0.03;;;;;;;16.63;83.51;100200.91;1723410;81;21614;-70
2022/07/07 03:28:20;;;;;;;0.03;0.03;;;;;;;16.63;83.69;100201.42;1716347;81;21040;-72
2022/07/07 03:30:47;;;;;;;0.10;0.10;;;;;;;16.63;83.69;100201.42;1718403;81;21043;-70
2022/07/07 03:33:13;;;;;;;;;;;;;;;16.61;84.33;100204.34;1731329;81;21056;-68
2022/07/07 03:35:40;;;;;;;0.78;0.05;;;;;;;16.63;84.50;100201.42;1722681;81;20101;-68
2022/07/07 03:38:06;;;;;;;0.10;0.10;;;;;;;16.62;85.15;100193.07;1728189;81;21028;-71
2022/07/07 03:40:34;;;;;;;;;;;;;;;16.64;85.18;100193.12;1725411;81;21114;-70
2022/07/07 03:43:00;;;;;;;1.75;0.10;;;;;;;16.68;85.73;100191.59;1727163;81;20154;-70
2022/07/07 03:45:26;;;;;;;;;;;;;;;16.67;84.97;100186.44;1687770;82;21037;-70
2022/07/07 03:47:53;;;;;;;0.17;0.10;;;;;;;16.72;85.27;100185.23;1657484;85;20141;-69
2022/07/07 03:50:19;;;;;;;0.50;0.10;;;;;;;16.70;84.72;100177.91;1657684;85;21102;-71
2022/07/07 03:52:46;;;;;;;0.10;0.10;;;;;;;16.76;85.17;100181.02;1656498;84;21059;-70
2022/07/07 03:55:12;;;;;;;0.55;0.10;;;;;;;16.81;84.87;100185.72;1660105;84;21616;-70
2022/07/07 03:57:41;;;;;;;0.62;0.20;;;;;;;16.85;84.58;100189.07;1685747;83;21001;-70
2022/07/07 04:00:09;;;;;;;1.00;0.30;;;;;;;16.90;84.68;100199.16;1673746;83;21102;-72
2022/07/07 04:02:35;;;;;;;2.43;0.10;;;;;;;16.99;84.07;100199.61;1699162;83;21143;-69
2022/07/07 04:05:04;;;;;;;0.10;0.10;;;;;;;16.99;84.14;100196.92;1694709;83;21517;-72
2022/07/07 04:07:33;;;;;;;0.30;0.10;;;;;;;17.00;83.88;100191.84;1679944;83;21523;-71
2022/07/07 04:10:02;;;;;;;0.10;0.10;;;;;;;17.02;84.36;100199.15;1681698;83;21038;-70
2022/07/07 04:12:29;;;;;;;0.47;0.10;;;;;;;17.09;84.03;100210.09;1669839;81;21105;-70
2022/07/07 04:14:56;;;;;;;0.45;0.10;;;;;;;17.10;83.80;100207.70;1675272;83;21038;-69
2022/07/07 04:17:24;;;;;;;0.60;0.10;;;;;;;17.13;83.67;100219.87;1653789;85;21065;-72
2022/07/07 04:19:50;;;;;;;0.85;0.10;;;;;;;17.21;84.04;100222.20;1645942;85;21003;-71
2022/07/07 04:22:16;;;;;;;;;;;;;;;17.30;82.63;100222.14;1626837;86;21042;-71
2022/07/07 04:24:43;;;;;;;3.15;0.10;;;;;;;17.36;82.32;100223.61;1636902;86;20184;-70
2022/07/07 04:27:10;;;;;;;4.78;0.20;;;;;;;17.37;81.93;100224.73;1686405;83;21343;-71
2022/07/07 04:29:37;;;;;;;0.30;0.10;;;;;;;17.38;81.92;100230.92;1680639;83;21117;-73
2022/07/07 04:32:06;;;;;;;4.03;0.10;;;;;;;17.40;81.63;100233.66;1682293;83;21565;-71
2022/07/07 04:34:33;;;;;;;0.15;0.10;;;;;;;17.39;81.38;100230.70;1689387;82;21001;-72
2022/07/07 04:36:59;;;;;;;;;;;;;;;17.39;81.48;100233.92;1715403;82;20993;-70
2022/07/07 04:39:25;;;;;;;1.52;0.10;;;;;;;17.38;81.23;100234.97;1700957;82;20475;-71
2022/07/07 04:41:51;;;;;;;1.05;0.10;;;;;;;17.30;81.18;100235.61;1710171;82;21023;-72
2022/07/07 04:44:18;;;;;;;1.50;0.20;;;;;;;17.27;81.27;100237.95;1698659;79;20986;-72
2022/07/07 04:46:44;;;;;;;0.10;0.10;;;;;;;17.20;80.84;100242.66;1661142;85;21078;-70
2022/07/07 04:49:10;;;;;;;0.10;0.10;;;;;;;17.19;81.27;100245.05;1661599;85;21183;-71
2022/07/07 04:51:39;;;;;;;;;;;;;;;17.19;81.50;100241.82;1663961;85;21113;-71
2022/07/07 04:54:06;;;;;;;1.30;0.20;;;;;;;17.25;81.70;100241.41;1656856;85;20224;-73
2022/07/07 04:56:32;;;;;;;0.70;0.20;;;;;;;17.22;81.41;100227.89;1652454;83;21082;-71
2022/07/07 04:58:58;;;;;;;1.17;0.10;;;;;;;17.24;81.74;100237.91;1653531;85;21624;-72
2022/07/07 05:01:24;;;;;;;;;;;;;;;17.20;80.96;100234.05;1650009;85;21198;-71
2022/07/07 05:03:51;;;;;;;2.30;0.30;;;;;;;17.18;81.55;100244.23;1650157;85;20178;-71
2022/07/07 05:06:17;;;;;;;2.27;0.57;;;;;;;17.12;81.32;100256.77;1654180;85;21729;-71
2022/07/07 05:08:45;;;;;;;0.45;0.10;;;;;;;17.12;81.70;100250.53;1643352;85;21039;-71
2022/07/07 05:11:11;;;;;;;2.47;0.30;;;;;;;17.16;81.98;100253.08;1644725;84;21050;-72
2022/07/07 05:13:38;;;;;;;3.60;0.30;;;;;;;17.17;81.31;100248.50;1677642;83;21045;-73
2022/07/07 05:16:07;;;;;;;0.55;0.55;;;;;;;17.12;81.31;100252.73;1679600;83;21078;-64
2022/07/07 05:18:34;;;;;;;0.57;0.50;;;;;;;17.10;81.48;100247.26;1645141;86;21599;-61
2022/07/07 05:21:00;;;;;;;1.65;0.50;;;;;;;17.09;81.47;100248.33;1684552;83;21010;-60
2022/07/07 05:23:27;;;;;;;0.85;0.82;;;;;;;17.16;82.17;100262.50;1675481;84;20986;-61
2022/07/07 05:25:54;;;;;;;1.37;0.75;;;;;;;17.26;80.47;100263.27;1667485;84;21029;-61
2022/07/07 05:28:21;;;;;;;2.10;0.78;;;;;;;17.29;80.52;100265.47;1669968;84;21022;-61
2022/07/07 05:30:47;;;;;;;;;;;;;;;17.36;81.23;100271.56;1669794;84;21050;-60
2022/07/07 05:33:13;;;;;;;0.62;0.50;;;;;;;17.42;80.41;100271.16;1672991;81;20570;-60
2022/07/07 05:35:39;;;;;;;1.37;0.40;;;;;;;17.37;80.14;100265.14;1674724;83;21089;-64
2022/07/07 05:38:05;;;;;;;2.77;0.50;;;;;;;17.36;79.70;100276.95;1678581;83;21389;-60
2022/07/07 05:40:31;;;;;;;;;;;;;;;17.32;80.34;100267.17;1682149;83;21018;-63
2022/07/07 05:42:57;;;;;;;0.35;0.35;;;;;;;17.34;80.68;100267.48;1682561;83;20139;-61
2022/07/07 05:45:23;;;;;;;2.98;2.12;;;;;;;17.33;80.91;100261.28;1677968;84;21030;-62
2022/07/07 05:47:49;;;;;;;0.80;0.80;;;;;;;17.36;80.50;100264.83;1663375;85;21069;-70
2022/07/07 05:50:15;;;;;;;1.15;0.30;;;;;;;17.42;80.40;100264.42;1674954;85;21094;-69
2022/07/07 05:52:41;;;;;;;;;;;;;;;17.48;79.83;100258.11;1678552;85;21049;-70
2022/07/07 05:55:09;;;;;;;1.50;0.72;;;;;;;17.55;79.89;100254.73;1674838;85;20202;-70
2022/07/07 05:57:36;;;;;;;1.32;0.93;;;;;;;17.56;79.13;100260.44;1670902;84;21553;-74
2022/07/07 06:00:07;;;;;;;1.37;0.20;;;;;;;17.56;79.28;100260.44;1676999;84;21017;-70
2022/07/07 06:02:35;;;;;;;0.37;0.37;;;;;;;17.62;79.30;100264.06;1675520;84;22477;-68
2022/07/07 06:05:05;;;;;;;0.42;0.42;;;;;;;17.65;78.71;100266.26;1679244;84;21054;-69
2022/07/07 06:07:33;;;;;;;0.28;0.10;;;;;;;17.62;78.93;100260.83;1675386;84;21022;-68
2022/07/07 06:09:59;;;;;;;0.95;0.10;;;;;;;17.64;78.88;100269.49;1676925;84;21097;-70
2022/07/07 06:12:26;;;;;;;0.47;0.10;;;;;;;17.63;79.54;100271.91;1672889;83;21302;-68
2022/07/07 06:14:52;;;;;;;1.50;0.53;;;;;;;17.66;78.38;100279.51;1666837;84;21595;-69
2022/07/07 06:17:19;;;;;;;1.15;0.10;;;;;;;17.64;78.48;100282.97;1682209;84;21017;-70
2022/07/07 06:19:46;;;;;;;0.10;0.10;;;;;;;17.64;79.13;100291.59;1644296;84;21101;-70
2022/07/07 06:22:13;;;;;;;1.80;0.20;;;;;;;17.68;78.82;100288.17;1673958;82;21086;-72
2022/07/07 06:24:41;;;;;;;0.35;0.13;;;;;;;17.74;78.70;100295.03;1654658;85;21030;-72
2022/07/07 06:27:07;;;;;;;0.55;0.13;;;;;;;17.75;78.50;100302.89;1640311;85;21157;-73
2022/07/07 06:29:34;;;;;;;1.47;0.10;;;;;;;17.78;78.62;100304.28;1643172;85;21053;-68
2022/07/07 06:32:00;;;;;;;0.57;0.10;;;;;;;17.83;78.96;100300.35;1652406;85;21018;-74
2022/07/07 06:34:26;;;;;;;;;;;;;;;17.90;79.13;100301.89;1690531;82;21108;-68
2022/07/07 06:36:53;;;;;;;0.28;0.10;;;;;;;18.00;78.42;100313.95;1707110;82;20104;-74
2022/07/07 06:39:19;;;;;;;;;;;;;;;18.04;77.89;100311.87;1707033;82;21002;-76
2022/07/07 06:41:45;;;;;;;0.20;0.10;;;;;;;18.09;77.09;100322.77;1697983;82;20104;-66
2022/07/07 06:44:12;;;;;;;4.10;0.20;;;;;;;18.09;77.47;100325.47;1694056;82;21519;-72
2022/07/07 06:46:41;;;;;;;1.20;0.20;;;;;;;18.18;77.21;100335.91;1680293;83;21558;-74
2022/07/07 06:49:09;;;;;;;0.23;0.17;;;;;;;18.18;76.53;100329.98;1682014;83;21038;-73
2022/07/07 06:51:36;;;;;;;1.72;0.17;;;;;;;18.16;76.08;100332.09;1684109;83;21070;-72
2022/07/07 06:54:02;;;;;;;0.37;0.10;;;;;;;18.12;76.39;100321.50;1636129;85;21098;-78
2022/07/07 06:56:29;;;;;;;0.53;0.10;;;;;;;18.09;76.56;100321.96;1634274;86;20981;-75
2022/07/07 06:58:55;;;;;;;0.40;0.20;;;;;;;18.07;76.50;100326.24;1632642;86;20990;-75
2022/07/07 07:01:21;;;;;;;;;;;;;;;18.08;76.78;100317.11;1607668;87;21038;-75
2022/07/07 07:03:48;;;;;;;0.20;0.20;;;;;;;18.16;77.16;100317.77;1636633;86;20518;-75
2022/07/07 07:06:14;;;;;;;2.72;0.20;;;;;;;18.21;77.03;100316.53;1624336;86;21057;-71
2022/07/07 07:08:42;;;;;;;1.75;0.20;;;;;;;18.29;76.16;100312.13;1615768;87;21094;-70
2022/07/07 07:11:08;;;;;;;0.75;0.33;;;;;;;18.35;76.78;100313.04;1649039;84;21518;-72
2022/07/07 07:13:36;;;;;;;2.17;0.20;;;;;;;18.40;76.69;100310.42;1631182;85;21556;-73
2022/07/07 07:16:03;;;;;;;2.05;0.10;;;;;;;18.45;76.82;100319.43;1627731;85;21114;-71
2022/07/07 07:18:29;;;;;;;0.47;0.10;;;;;;;18.53;76.74;100312.83;1613619;87;21246;-73
2022/07/07 07:20:56;;;;;;;0.37;0.10;;;;;;;18.59;76.02;100305.64;1610076;87;21047;-72
2022/07/07 07:23:24;;;;;;;0.20;0.10;;;;;;;18.61;75.08;100315.66;1603039;87;21128;-73
2022/07/07 07:25:51;;;;;;;0.88;0.10;;;;;;;18.63;75.44;100318.42;1604488;87;21180;-72
2022/07/07 07:28:19;;;;;;;0.20;0.13;;;;;;;18.67;75.37;100324.98;1638865;86;21071;-72
2022/07/07 07:30:45;;;;;;;1.20;0.33;;;;;;;18.74;75.24;100324.84;1640520;86;21514;-72
2022/07/07 07:33:12;;;;;;;0.60;0.20;;;;;;;18.81;74.67;100326.05;1633114;87;21125;-71
2022/07/07 07:35:38;;;;;;;;;;;;;;;18.81;73.97;100326.86;1612832;87;21183;-72
2022/07/07 07:38:04;;;;;;;2.60;0.20;;;;;;;18.86;74.30;100326.16;1632145;86;20199;-71
2022/07/07 07:40:31;;;;;;;0.23;0.20;;;;;;;18.89;73.47;100328.88;1634728;86;21722;-71
2022/07/07 07:42:57;;;;;;;0.75;0.15;;;;;;;18.94;74.08;100324.39;1611856;87;21041;-75
2022/07/07 07:45:24;;;;;;;0.20;0.13;;;;;;;19.02;73.12;100334.81;1641663;86;21098;-72
2022/07/07 07:47:51;;;;;;;0.95;0.20;;;;;;;19.09;72.80;100330.58;1632416;86;21022;-73
2022/07/07 07:50:20;;;;;;;1.15;0.20;;;;;;;19.17;73.05;100338.27;1633331;86;21036;-71
2022/07/07 07:52:48;;;;;;;0.70;0.40;;;;;;;19.25;72.20;100333.83;1639030;86;21063;-72
2022/07/07 07:55:19;;;;;;;2.87;0.17;;;;;;;19.23;71.91;100334.61;1632574;86;21017;-73
2022/07/07 07:57:54;;;;;;;2.17;0.35;;;;;;;19.20;72.22;100339.69;1592787;88;21020;-72
2022/07/07 08:00:22;;;;;;;0.47;0.20;;;;;;;19.09;71.41;100331.94;1584630;87;21526;-72
2022/07/07 08:02:50;;;;;;;0.93;0.30;;;;;;;18.96;71.49;100333.61;1690964;84;21002;-74
2022/07/07 08:05:18;;;;;;;0.62;0.17;;;;;;;18.86;72.11;100330.20;1702913;84;21106;-75
2022/07/07 08:07:45;;;;;;;0.10;0.10;;;;;;;18.83;72.10;100332.84;1687411;84;21155;-74
2022/07/07 08:10:15;;;;;;;0.10;0.10;;;;;;;18.85;72.58;100340.70;1687384;84;21506;-67
2022/07/07 08:12:44;;;;;;;3.72;0.88;;;;;;;18.88;73.38;100333.47;1664591;84;21002;-72
2022/07/07 08:15:11;;;;;;;4.05;0.20;;;;;;;18.98;73.30;100332.29;1650323;86;21049;-73
2022/07/07 08:17:37;;;;;;;1.35;0.20;;;;;;;19.04;73.50;100336.73;1641286;86;21526;-72
2022/07/07 08:20:06;;;;;;;;;;;;;;;19.16;72.57;100345.30;1663858;86;21042;-71
2022/07/07 08:22:33;;;;;;;1.52;0.20;;;;;;;19.25;72.31;100346.53;1670436;85;20139;-74
2022/07/07 08:25:00;;;;;;;1.72;0.20;;;;;;;19.29;71.93;100352.23;1678960;85;21082;-73
2022/07/07 08:27:28;;;;;;;1.60;0.30;;;;;;;19.37;71.88;100348.59;1688465;85;20984;-72
2022/07/07 08:29:55;;;;;;;2.05;0.20;;;;;;;19.43;71.83;100349.50;1673942;85;21022;-70
2022/07/07 08:32:21;;;;;;;1.12;0.28;;;;;;;19.52;71.46;100348.02;1683735;85;21002;-73
2022/07/07 08:34:47;;;;;;;1.52;1.42;;;;;;;19.56;70.42;100349.16;1690030;84;21097;-71
2022/07/07 08:37:14;;;;;;;;;;;;;;;19.61;70.12;100353.84;1702013;83;21537;-73
2022/07/07 08:39:40;;;;;;;;;;;;;;;19.65;70.11;100351.73;1685350;84;20491;-74
2022/07/07 08:42:07;;;;;;;1.10;0.25;;;;;;;19.69;69.82;100349.34;1684928;84;20467;-73
2022/07/07 08:44:35;;;;;;;1.42;0.82;;;;;;;19.73;70.12;100356.47;1695556;82;21517;-72
2022/07/07 08:47:07;;;;;;;0.28;0.20;;;;;;;19.83;68.46;100353.89;1682179;84;21119;-74
2022/07/07 08:49:36;;;;;;;0.60;0.30;;;;;;;19.91;67.73;100348.07;1691249;83;21033;-72
2022/07/07 08:52:05;;;;;;;0.62;0.20;;;;;;;19.94;67.56;100350.26;1693603;84;21065;-71
2022/07/07 08:54:33;;;;;;;0.65;0.20;;;;;;;19.96;67.24;100356.77;1683338;82;21087;-73
2022/07/07 08:57:01;;;;;;;1.30;0.68;;;;;;;19.96;66.95;100367.05;1694271;82;21101;-69
2022/07/07 08:59:28;;;;;;;2.45;0.20;;;;;;;20.00;67.71;100364.67;1688920;82;21519;-73
2022/07/07 09:02:01;;;;;;;0.75;0.30;;;;;;;20.10;67.01;100365.33;1695976;83;21038;-73
2022/07/07 09:04:27;;;;;;;0.10;0.10;;;;;;;20.21;66.65;100366.59;1712817;82;21033;-72
2022/07/07 09:06:59;;;;;;;0.30;0.10;;;;;;;20.32;66.56;100362.09;1705966;82;21002;-72
2022/07/07 09:09:45;;;;;;;0.95;0.20;;;;;;;20.47;66.78;100363.36;1701627;82;21434;-76
2022/07/07 09:12:16;;;;;;;0.30;0.20;;;;;;;20.62;66.80;100364.91;1682502;82;21048;-69
2022/07/07 09:14:47;;;;;;;0.50;0.20;;;;;;;20.70;65.77;100365.83;1647579;84;21092;-73
2022/07/07 09:17:27;;;;;;;0.93;0.30;;;;;;;20.73;66.57;100368.00;1655639;84;21672;-72
2022/07/07 09:20:12;;;;;;;2.77;0.10;;;;;;;20.82;66.27;100373.80;1659562;84;21108;-73
2022/07/07 09:22:56;;;;;;;0.47;0.20;;;;;;;20.91;65.26;100374.16;1659633;84;21061;-69
2022/07/07 09:25:25;;;;;;;1.55;0.40;;;;;;;20.98;64.33;100365.27;1653704;84;21105;-73
2022/07/07 09:28:06;;;;;;;0.62;0.20;;;;;;;20.98;64.36;100373.39;1659168;84;21490;-74
2022/07/07 09:30:40;;;;;;;0.20;0.15;;;;;;;21.04;64.00;100375.09;1658363;84;21081;-73
2022/07/07 09:33:15;;;;;;;0.20;0.20;;;;;;;21.10;63.90;100384.90;1655024;84;21072;-72
2022/07/07 09:38:31;;;;;;;0.35;0.35;;;;;;;20.96;61.67;100377.73;1648352;84;21141;-72
2022/07/07 09:41:12;;;;;;;1.07;0.40;;;;;;;20.86;62.60;100390.36;1655029;84;21497;-73
2022/07/07 09:43:48;;;;;;;0.72;0.30;;;;;;;20.86;63.39;100380.88;1654253;84;21083;-70
2022/07/07 09:46:29;;;;;;;0.10;0.10;;;;;;;20.99;62.77;100386.69;1648398;84;21064;-72
2022/07/07 09:49:00;;;;;;;0.42;0.10;;;;;;;21.15;62.66;100392.25;1663936;84;21105;-74
2022/07/07 09:51:32;;;;;;;0.53;0.10;;;;;;;21.33;62.10;100386.45;1657999;84;21079;-73
2022/07/07 09:54:12;;;;;;;0.78;0.10;;;;;;;21.44;60.83;100392.81;1657944;84;21580;-72
2022/07/07 09:56:41;;;;;;;1.75;0.20;;;;;;;21.47;60.86;100384.13;1662300;82;21050;-73
2022/07/07 09:59:09;;;;;;;0.17;0.17;;;;;;;21.49;61.84;100383.88;1657304;84;21505;-71
2022/07/07 10:01:40;;;;;;;1.65;0.10;;;;;;;21.50;61.88;100382.82;1684592;82;21319;-76
2022/07/07 10:04:14;;;;;;;0.20;0.20;;;;;;;21.53;61.93;100381.77;1703532;82;21118;-72
2022/07/07 10:06:43;;;;;;;1.25;0.30;;;;;;;21.51;62.35;100379.02;1697763;83;21082;-73
2022/07/07 10:09:24;;;;;;;3.35;0.30;;;;;;;21.51;62.16;100377.14;1701255;82;21047;-74
2022/07/07 10:11:53;;;;;;;0.20;0.20;;;;;;;21.53;62.57;100372.79;1690373;82;21901;-74
2022/07/07 10:14:34;;;;;;;0.55;0.20;;;;;;;21.61;62.11;100375.58;1674448;84;20986;-69
2022/07/07 10:17:03;;;;;;;1.45;0.10;;;;;;;21.71;61.49;100378.34;1676056;84;20986;-68
2022/07/07 10:19:30;;;;;;;0.20;0.20;;;;;;;21.72;60.37;100380.80;1669959;84;21066;-69
2022/07/07 10:21:58;;;;;;;0.65;0.20;;;;;;;21.71;61.20;100383.77;1678308;85;21061;-69
2022/07/07 10:24:32;;;;;;;1.35;0.20;;;;;;;21.72;61.44;100380.80;1667613;84;21041;-68
2022/07/07 10:27:04;;;;;;;0.30;0.10;;;;;;;21.76;60.96;100385.17;1668243;84;21076;-68
2022/07/07 10:29:44;;;;;;;0.33;0.33;;;;;;;21.80;59.42;100378.14;1665411;84;21074;-66
2022/07/07 10:32:18;;;;;;;6.08;0.20;;;;;;;21.77;60.54;100372.70;1673372;84;21109;-72
2022/07/07 10:34:55;;;;;;;0.42;0.10;;;;;;;21.84;59.95;100378.44;1670802;84;21037;-69
2022/07/07 10:37:25;;;;;;;2.02;0.33;;;;;;;21.86;59.36;100378.44;1631580;86;21561;-68
2022/07/07 10:39:56;;;;;;;0.50;0.20;;;;;;;21.94;59.65;100373.89;1676066;84;20998;-68
2022/07/07 10:42:58;;;;;;;3.33;0.30;;;;;;;22.10;59.75;100365.82;1672011;84;21017;-69
2022/07/07 10:45:26;;;;;;;0.25;0.10;;;;;;;22.27;58.79;100368.38;1668906;84;21559;-68
2022/07/07 10:47:53;;;;;;;0.10;0.10;;;;;;;22.39;57.49;100378.99;1676056;84;21682;-67
2022/07/07 10:50:33;;;;;;;0.90;0.10;;;;;;;22.40;56.32;100376.02;1668157;84;21167;-68
2022/07/07 10:53:00;;;;;;;0.10;0.05;;;;;;;22.36;57.28;100374.92;1672271;84;21032;-67
2022/07/07 10:55:56;;;;;;;1.45;0.10;;;;;;;22.33;54.90;100376.25;1664926;83;21034;-68
2022/07/07 10:58:58;;;;;;;0.00;0.00;;;;;;;22.30;54.97;100362.39;1670643;84;21093;-69
2022/07/07 11:01:31;;;;;;;0.70;0.10;;;;;;;22.30;54.66;100375.96;1678918;84;21034;-69
2022/07/07 11:03:58;;;;;;;0.95;0.10;;;;;;;22.24;54.22;100375.09;1629885;86;21636;-69
2022/07/07 11:06:24;;;;;;;0.00;0.00;;;;;;;22.25;54.39;100374.06;1670699;84;21093;-68
2022/07/07 11:09:02;;;;;;;1.27;0.10;;;;;;;22.38;54.77;100372.76;1676168;84;21033;-70
2022/07/07 11:11:29;;;;;;;0.17;0.10;;;;;;;22.57;54.15;100380.43;1679834;84;21593;-69
2022/07/07 11:14:05;;;;;;;0.20;0.00;;;;;;;22.63;53.24;100380.16;1683339;83;21030;-70
2022/07/07 11:16:32;;;;;;;0.10;0.10;;;;;;;22.64;52.43;100368.74;1640333;86;20996;-67
2022/07/07 11:19:03;;;;;;;1.07;0.20;;;;;;;22.63;51.96;100384.78;1683583;84;21125;-69
2022/07/07 11:21:44;;;;;;;0.93;0.42;;;;;;;22.65;52.33;100374.46;1692060;84;20983;-68
2022/07/07 11:24:23;;;;;;;2.00;0.60;;;;;;;22.71;52.57;100377.45;1677626;84;21140;-68
2022/07/07 11:27:02;;;;;;;0.30;0.10;;;;;;;22.72;52.84;100371.77;1618106;87;21549;-66
2022/07/07 11:29:30;;;;;;;0.47;0.10;;;;;;;22.77;52.11;100369.58;1680856;84;21939;-67
2022/07/07 11:32:02;;;;;;;3.00;0.75;;;;;;;22.87;51.80;100380.48;1681540;84;21057;-67
2022/07/07 11:34:48;;;;;;;0.40;0.10;;;;;;;22.96;50.09;100388.91;1667660;82;21030;-69
2022/07/07 11:37:23;;;;;;;1.25;0.10;;;;;;;22.98;49.00;100387.28;1692683;82;21086;-65
2022/07/07 11:39:50;;;;;;;0.30;0.28;;;;;;;22.85;49.18;100384.02;1691476;82;21034;-69
2022/07/07 11:42:16;;;;;;;0.20;0.03;;;;;;;22.75;49.47;100379.91;1709377;82;21467;-66